sensor_id;sensor_type;location;lat;lon;timestamp;temperature;humidity
6627;DHT22;3349;49.830;8.748;2023-10-19T00:01:25;11.30;99.90
6627;DHT22;3349;49.830;8.748;2023-10-19T00:03:54;11.30;99.90
6627;DHT22;3349;49.830;8.748;2023-10-19T00:06:22;11.30;99.90
6627;DHT22;3349;49.830;8.748;2023-10-19T00:08:48;11.30;99.90
6627;DHT22;3349;49.830;8.748;2023-10-19T00:11:16;11.30;99.90
6627;DHT22;3349;49.830;8.748;2023-10-19T00:13:47;11.30;99.90
6627;DHT22;3349;49.830;8.748;2023-10-19T00:16:16;11.30;99.90
6627;DHT22;3349;49.830;8.748;2023-10-19T00:18:42;11.30;99.90
6627;DHT22;3349;49.830;8.748;2023-10-19T00:21:10;11.30;99.90
6627;DHT22;3349;49.830;8.748;2023-10-19T00:23:45;11.30;99.90
6627;DHT22;3349;49.830;8.748;2023-10-19T00:26:15;11.30;99.90
6627;DHT22;3349;49.830;8.748;2023-10-19T00:28:43;11.30;99.90
6627;DHT22;3349;49.830;8.748;2023-10-19T00:31:11;11.30;99.90
6627;DHT22;3349;49.830;8.748;2023-10-19T00:33:37;11.30;99.90
6627;DHT22;3349;49.830;8.748;2023-10-19T00:36:05;11.30;99.90
6627;DHT22;3349;49.830;8.748;2023-10-19T00:38:34;11.30;99.90
6627;DHT22;3349;49.830;8.748;2023-10-19T00:41:13;11.30;99.90
6627;DHT22;3349;49.830;8.748;2023-10-19T00:43:46;11.30;99.90
6627;DHT22;3349;49.830;8.748;2023-10-19T00:46:15;11.30;99.90
6627;DHT22;3349;49.830;8.748;2023-10-19T00:48:49;11.30;99.90
6627;DHT22;3349;49.830;8.748;2023-10-19T00:51:18;11.30;99.90
6627;DHT22;3349;49.830;8.748;2023-10-19T00:54:11;11.30;99.90
6627;DHT22;3349;49.830;8.748;2023-10-19T00:56:42;11.40;99.90
6627;DHT22;3349;49.830;8.748;2023-10-19T00:59:12;11.40;99.90
6627;DHT22;3349;49.830;8.748;2023-10-19T01:01:40;11.40;99.90
6627;DHT22;3349;49.830;8.748;2023-10-19T01:04:10;11.40;99.90
6627;DHT22;3349;49.830;8.748;2023-10-19T01:06:40;11.40;99.90
6627;DHT22;3349;49.830;8.748;2023-10-19T01:09:11;11.40;99.90
6627;DHT22;3349;49.830;8.748;2023-10-19T01:11:40;11.40;99.90
6627;DHT22;3349;49.830;8.748;2023-10-19T01:14:20;11.50;99.90
6627;DHT22;3349;49.830;8.748;2023-10-19T01:16:48;11.50;99.90
6627;DHT22;3349;49.830;8.748;2023-10-19T01:19:16;11.50;99.90
6627;DHT22;3349;49.830;8.748;2023-10-19T01:21:44;11.60;99.90
6627;DHT22;3349;49.830;8.748;2023-10-19T01:24:18;11.60;99.90
6627;DHT22;3349;49.830;8.748;2023-10-19T01:26:51;11.70;99.90
6627;DHT22;3349;49.830;8.748;2023-10-19T01:29:19;11.70;99.90
6627;DHT22;3349;49.830;8.748;2023-10-19T01:31:52;11.90;99.90
6627;DHT22;3349;49.830;8.748;2023-10-19T01:34:22;12.20;99.90
6627;DHT22;3349;49.830;8.748;2023-10-19T01:36:52;12.50;99.90
6627;DHT22;3349;49.830;8.748;2023-10-19T01:39:22;12.70;99.90
6627;DHT22;3349;49.830;8.748;2023-10-19T01:41:48;12.80;99.90
6627;DHT22;3349;49.830;8.748;2023-10-19T01:44:16;12.90;99.90
6627;DHT22;3349;49.830;8.748;2023-10-19T01:46:42;13.00;99.90
6627;DHT22;3349;49.830;8.748;2023-10-19T01:49:10;13.10;99.90
6627;DHT22;3349;49.830;8.748;2023-10-19T01:51:36;13.20;99.90
6627;DHT22;3349;49.830;8.748;2023-10-19T01:54:05;13.30;99.90
6627;DHT22;3349;49.830;8.748;2023-10-19T01:56:32;13.40;99.90
6627;DHT22;3349;49.830;8.748;2023-10-19T01:59:01;13.40;99.90
6627;DHT22;3349;49.830;8.748;2023-10-19T02:01:27;13.40;99.90
6627;DHT22;3349;49.830;8.748;2023-10-19T02:03:59;13.50;99.90
6627;DHT22;3349;49.830;8.748;2023-10-19T02:06:27;13.60;99.90
6627;DHT22;3349;49.830;8.748;2023-10-19T02:09:03;13.60;99.90
6627;DHT22;3349;49.830;8.748;2023-10-19T02:11:36;13.60;99.90
6627;DHT22;3349;49.830;8.748;2023-10-19T02:14:07;13.60;99.90
6627;DHT22;3349;49.830;8.748;2023-10-19T02:16:39;13.60;99.90
6627;DHT22;3349;49.830;8.748;2023-10-19T02:19:05;13.60;99.90
6627;DHT22;3349;49.830;8.748;2023-10-19T02:21:31;13.60;99.90
6627;DHT22;3349;49.830;8.748;2023-10-19T02:24:04;13.60;99.90
6627;DHT22;3349;49.830;8.748;2023-10-19T02:26:32;13.60;99.90
6627;DHT22;3349;49.830;8.748;2023-10-19T02:29:00;13.70;99.90
6627;DHT22;3349;49.830;8.748;2023-10-19T02:31:33;13.70;99.90
6627;DHT22;3349;49.830;8.748;2023-10-19T02:33:59;13.70;99.90
6627;DHT22;3349;49.830;8.748;2023-10-19T02:36:26;13.80;99.90
6627;DHT22;3349;49.830;8.748;2023-10-19T02:38:54;13.80;99.90
6627;DHT22;3349;49.830;8.748;2023-10-19T02:41:24;13.80;99.90
6627;DHT22;3349;49.830;8.748;2023-10-19T02:43:50;13.80;99.90
6627;DHT22;3349;49.830;8.748;2023-10-19T02:46:28;13.80;99.90
6627;DHT22;3349;49.830;8.748;2023-10-19T02:48:53;13.80;99.90
6627;DHT22;3349;49.830;8.748;2023-10-19T02:51:20;13.80;99.90
6627;DHT22;3349;49.830;8.748;2023-10-19T02:53:46;13.80;99.90
6627;DHT22;3349;49.830;8.748;2023-10-19T02:56:14;13.80;99.90
6627;DHT22;3349;49.830;8.748;2023-10-19T02:58:43;13.70;99.90
6627;DHT22;3349;49.830;8.748;2023-10-19T03:01:14;13.70;99.90
6627;DHT22;3349;49.830;8.748;2023-10-19T03:03:44;13.70;99.90
6627;DHT22;3349;49.830;8.748;2023-10-19T03:06:12;13.70;99.90
6627;DHT22;3349;49.830;8.748;2023-10-19T03:08:37;13.70;99.90
6627;DHT22;3349;49.830;8.748;2023-10-19T03:11:04;13.60;99.90
6627;DHT22;3349;49.830;8.748;2023-10-19T03:13:30;13.60;99.90
6627;DHT22;3349;49.830;8.748;2023-10-19T03:15:58;13.60;99.90
6627;DHT22;3349;49.830;8.748;2023-10-19T03:18:26;13.50;99.90
6627;DHT22;3349;49.830;8.748;2023-10-19T03:20:55;13.50;99.90
6627;DHT22;3349;49.830;8.748;2023-10-19T03:23:21;13.40;99.90
6627;DHT22;3349;49.830;8.748;2023-10-19T03:25:53;13.40;99.90
6627;DHT22;3349;49.830;8.748;2023-10-19T03:28:37;13.40;99.90
6627;DHT22;3349;49.830;8.748;2023-10-19T03:31:06;13.40;99.90
6627;DHT22;3349;49.830;8.748;2023-10-19T03:33:33;13.40;99.90
6627;DHT22;3349;49.830;8.748;2023-10-19T03:36:03;13.40;99.90
6627;DHT22;3349;49.830;8.748;2023-10-19T03:38:30;13.30;99.90
6627;DHT22;3349;49.830;8.748;2023-10-19T03:41:02;13.40;99.90
6627;DHT22;3349;49.830;8.748;2023-10-19T03:43:32;13.40;99.90
6627;DHT22;3349;49.830;8.748;2023-10-19T03:46:02;13.40;99.90
6627;DHT22;3349;49.830;8.748;2023-10-19T03:48:40;13.40;99.90
6627;DHT22;3349;49.830;8.748;2023-10-19T03:51:08;13.50;99.90
6627;DHT22;3349;49.830;8.748;2023-10-19T03:53:37;13.50;99.90
6627;DHT22;3349;49.830;8.748;2023-10-19T03:56:05;13.50;99.90
6627;DHT22;3349;49.830;8.748;2023-10-19T03:58:36;13.50;99.90
6627;DHT22;3349;49.830;8.748;2023-10-19T04:01:04;13.50;99.90
6627;DHT22;3349;49.830;8.748;2023-10-19T04:03:30;13.50;99.90
6627;DHT22;3349;49.830;8.748;2023-10-19T04:05:57;13.50;99.90
6627;DHT22;3349;49.830;8.748;2023-10-19T04:08:27;13.50;99.90
6627;DHT22;3349;49.830;8.748;2023-10-19T04:10:59;13.50;99.90
6627;DHT22;3349;49.830;8.748;2023-10-19T04:13:37;13.50;99.90
6627;DHT22;3349;49.830;8.748;2023-10-19T04:16:04;13.50;99.90
6627;DHT22;3349;49.830;8.748;2023-10-19T04:18:33;13.50;99.90
6627;DHT22;3349;49.830;8.748;2023-10-19T04:21:03;13.40;99.90
6627;DHT22;3349;49.830;8.748;2023-10-19T04:23:31;13.40;99.90
6627;DHT22;3349;49.830;8.748;2023-10-19T04:26:00;13.40;99.90
6627;DHT22;3349;49.830;8.748;2023-10-19T04:28:31;13.30;99.90
6627;DHT22;3349;49.830;8.748;2023-10-19T04:31:03;13.30;99.90
6627;DHT22;3349;49.830;8.748;2023-10-19T04:33:32;13.30;99.90
6627;DHT22;3349;49.830;8.748;2023-10-19T04:35:59;13.20;99.90
6627;DHT22;3349;49.830;8.748;2023-10-19T04:38:26;13.20;99.90
6627;DHT22;3349;49.830;8.748;2023-10-19T04:41:05;13.10;99.90
6627;DHT22;3349;49.830;8.748;2023-10-19T04:43:34;13.00;99.90
6627;DHT22;3349;49.830;8.748;2023-10-19T04:46:03;12.90;99.90
6627;DHT22;3349;49.830;8.748;2023-10-19T04:48:33;13.00;99.90
6627;DHT22;3349;49.830;8.748;2023-10-19T04:51:01;13.00;99.90
6627;DHT22;3349;49.830;8.748;2023-10-19T04:53:29;13.00;99.90
6627;DHT22;3349;49.830;8.748;2023-10-19T04:55:56;12.90;99.90
6627;DHT22;3349;49.830;8.748;2023-10-19T04:58:24;12.90;99.90
6627;DHT22;3349;49.830;8.748;2023-10-19T05:00:52;12.90;99.90
6627;DHT22;3349;49.830;8.748;2023-10-19T05:03:19;12.80;99.90
6627;DHT22;3349;49.830;8.748;2023-10-19T05:05:47;12.80;99.90
6627;DHT22;3349;49.830;8.748;2023-10-19T05:08:13;12.80;99.90
6627;DHT22;3349;49.830;8.748;2023-10-19T05:10:40;12.80;99.90
6627;DHT22;3349;49.830;8.748;2023-10-19T05:13:07;12.80;99.90
6627;DHT22;3349;49.830;8.748;2023-10-19T05:15:35;12.80;99.90
6627;DHT22;3349;49.830;8.748;2023-10-19T05:18:02;12.60;99.90
6627;DHT22;3349;49.830;8.748;2023-10-19T05:20:30;12.60;99.90
6627;DHT22;3349;49.830;8.748;2023-10-19T05:22:57;12.50;99.90
6627;DHT22;3349;49.830;8.748;2023-10-19T05:25:25;12.50;99.90
6627;DHT22;3349;49.830;8.748;2023-10-19T05:27:52;12.50;99.90
6627;DHT22;3349;49.830;8.748;2023-10-19T05:30:19;12.50;99.90
6627;DHT22;3349;49.830;8.748;2023-10-19T05:32:50;12.50;99.90
6627;DHT22;3349;49.830;8.748;2023-10-19T05:35:17;12.50;99.90
6627;DHT22;3349;49.830;8.748;2023-10-19T05:37:48;12.50;99.90
6627;DHT22;3349;49.830;8.748;2023-10-19T05:40:15;12.50;99.90
6627;DHT22;3349;49.830;8.748;2023-10-19T05:42:43;12.50;99.90
6627;DHT22;3349;49.830;8.748;2023-10-19T05:45:11;12.50;99.90
6627;DHT22;3349;49.830;8.748;2023-10-19T05:47:41;12.50;99.90
6627;DHT22;3349;49.830;8.748;2023-10-19T05:50:10;12.50;99.90
6627;DHT22;3349;49.830;8.748;2023-10-19T05:52:40;12.50;99.90
6627;DHT22;3349;49.830;8.748;2023-10-19T05:55:08;12.60;99.90
6627;DHT22;3349;49.830;8.748;2023-10-19T05:57:35;12.70;99.90
6627;DHT22;3349;49.830;8.748;2023-10-19T06:00:06;12.70;99.90
6627;DHT22;3349;49.830;8.748;2023-10-19T06:02:33;12.70;99.90
6627;DHT22;3349;49.830;8.748;2023-10-19T06:05:00;12.70;99.90
6627;DHT22;3349;49.830;8.748;2023-10-19T06:07:28;12.80;99.90
6627;DHT22;3349;49.830;8.748;2023-10-19T06:09:55;12.80;99.90
6627;DHT22;3349;49.830;8.748;2023-10-19T06:12:22;12.80;99.90
6627;DHT22;3349;49.830;8.748;2023-10-19T06:14:48;12.70;99.90
6627;DHT22;3349;49.830;8.748;2023-10-19T06:17:15;12.70;99.90
6627;DHT22;3349;49.830;8.748;2023-10-19T06:19:44;12.70;99.90
6627;DHT22;3349;49.830;8.748;2023-10-19T06:22:11;12.60;99.90
6627;DHT22;3349;49.830;8.748;2023-10-19T06:24:42;12.70;99.90
6627;DHT22;3349;49.830;8.748;2023-10-19T06:27:09;12.80;99.90
6627;DHT22;3349;49.830;8.748;2023-10-19T06:29:35;12.90;99.90
6627;DHT22;3349;49.830;8.748;2023-10-19T06:32:02;12.90;99.90
6627;DHT22;3349;49.830;8.748;2023-10-19T06:34:29;13.00;99.90
6627;DHT22;3349;49.830;8.748;2023-10-19T06:36:57;13.10;99.90
6627;DHT22;3349;49.830;8.748;2023-10-19T06:39:24;13.20;99.90
6627;DHT22;3349;49.830;8.748;2023-10-19T06:41:52;13.30;99.90
6627;DHT22;3349;49.830;8.748;2023-10-19T06:44:19;13.40;99.90
6627;DHT22;3349;49.830;8.748;2023-10-19T06:46:47;13.50;99.90
6627;DHT22;3349;49.830;8.748;2023-10-19T06:49:14;13.50;99.90
6627;DHT22;3349;49.830;8.748;2023-10-19T06:51:43;13.60;99.90
6627;DHT22;3349;49.830;8.748;2023-10-19T06:54:10;13.60;99.90
6627;DHT22;3349;49.830;8.748;2023-10-19T06:56:38;13.80;99.90
6627;DHT22;3349;49.830;8.748;2023-10-19T06:59:08;13.90;99.90
6627;DHT22;3349;49.830;8.748;2023-10-19T07:01:34;14.00;99.90
6627;DHT22;3349;49.830;8.748;2023-10-19T07:04:01;14.10;99.90
6627;DHT22;3349;49.830;8.748;2023-10-19T07:06:28;14.10;99.90
6627;DHT22;3349;49.830;8.748;2023-10-19T07:08:56;14.30;99.90
6627;DHT22;3349;49.830;8.748;2023-10-19T07:11:23;14.30;99.90
6627;DHT22;3349;49.830;8.748;2023-10-19T07:13:50;14.40;99.90
6627;DHT22;3349;49.830;8.748;2023-10-19T07:16:18;14.50;99.90
6627;DHT22;3349;49.830;8.748;2023-10-19T07:18:45;14.60;99.90
6627;DHT22;3349;49.830;8.748;2023-10-19T07:21:12;14.70;99.90
6627;DHT22;3349;49.830;8.748;2023-10-19T07:23:39;14.70;99.90
6627;DHT22;3349;49.830;8.748;2023-10-19T07:26:06;14.80;99.90
6627;DHT22;3349;49.830;8.748;2023-10-19T07:28:32;14.80;99.90
6627;DHT22;3349;49.830;8.748;2023-10-19T07:31:00;14.90;99.90
6627;DHT22;3349;49.830;8.748;2023-10-19T07:33:28;14.90;99.90
6627;DHT22;3349;49.830;8.748;2023-10-19T07:35:56;14.90;99.90
6627;DHT22;3349;49.830;8.748;2023-10-19T07:38:26;15.00;99.90
6627;DHT22;3349;49.830;8.748;2023-10-19T07:40:54;14.90;99.90
6627;DHT22;3349;49.830;8.748;2023-10-19T07:43:21;14.90;99.90
6627;DHT22;3349;49.830;8.748;2023-10-19T07:45:48;15.00;99.90
6627;DHT22;3349;49.830;8.748;2023-10-19T07:48:15;15.10;99.90
6627;DHT22;3349;49.830;8.748;2023-10-19T07:50:44;15.10;99.90
6627;DHT22;3349;49.830;8.748;2023-10-19T07:53:10;15.20;99.90
6627;DHT22;3349;49.830;8.748;2023-10-19T07:55:37;15.30;99.90
6627;DHT22;3349;49.830;8.748;2023-10-19T07:58:05;15.40;99.90
6627;DHT22;3349;49.830;8.748;2023-10-19T08:00:32;15.50;99.90
6627;DHT22;3349;49.830;8.748;2023-10-19T08:03:00;15.50;99.90
6627;DHT22;3349;49.830;8.748;2023-10-19T08:05:27;15.60;99.90
6627;DHT22;3349;49.830;8.748;2023-10-19T08:07:56;15.70;99.90
6627;DHT22;3349;49.830;8.748;2023-10-19T08:10:24;15.80;99.90
6627;DHT22;3349;49.830;8.748;2023-10-19T08:12:52;15.80;99.90
6627;DHT22;3349;49.830;8.748;2023-10-19T08:15:21;15.80;99.90
6627;DHT22;3349;49.830;8.748;2023-10-19T08:17:49;15.80;99.90
6627;DHT22;3349;49.830;8.748;2023-10-19T08:20:16;15.80;99.90
6627;DHT22;3349;49.830;8.748;2023-10-19T08:22:48;15.80;99.90
6627;DHT22;3349;49.830;8.748;2023-10-19T08:25:16;15.80;99.90
6627;DHT22;3349;49.830;8.748;2023-10-19T08:27:44;15.80;99.90
6627;DHT22;3349;49.830;8.748;2023-10-19T08:30:11;15.80;99.90
6627;DHT22;3349;49.830;8.748;2023-10-19T08:32:39;15.90;99.90
6627;DHT22;3349;49.830;8.748;2023-10-19T08:35:08;15.90;99.90
6627;DHT22;3349;49.830;8.748;2023-10-19T08:37:37;16.00;99.90
6627;DHT22;3349;49.830;8.748;2023-10-19T08:40:06;16.00;99.90
6627;DHT22;3349;49.830;8.748;2023-10-19T08:42:34;16.10;99.90
6627;DHT22;3349;49.830;8.748;2023-10-19T08:45:02;16.20;99.90
6627;DHT22;3349;49.830;8.748;2023-10-19T08:47:34;16.40;99.90
6627;DHT22;3349;49.830;8.748;2023-10-19T08:50:02;16.60;99.90
6627;DHT22;3349;49.830;8.748;2023-10-19T08:52:30;16.80;99.90
6627;DHT22;3349;49.830;8.748;2023-10-19T08:54:58;16.90;99.90
6627;DHT22;3349;49.830;8.748;2023-10-19T08:57:25;17.00;99.90
6627;DHT22;3349;49.830;8.748;2023-10-19T08:59:53;17.10;99.90
6627;DHT22;3349;49.830;8.748;2023-10-19T09:02:22;17.30;99.90
6627;DHT22;3349;49.830;8.748;2023-10-19T09:04:49;17.50;99.90
6627;DHT22;3349;49.830;8.748;2023-10-19T09:07:17;17.60;99.90
6627;DHT22;3349;49.830;8.748;2023-10-19T09:09:44;17.70;99.90
6627;DHT22;3349;49.830;8.748;2023-10-19T09:12:13;17.90;99.90
6627;DHT22;3349;49.830;8.748;2023-10-19T09:14:39;18.00;99.90
6627;DHT22;3349;49.830;8.748;2023-10-19T09:17:08;17.90;99.90
6627;DHT22;3349;49.830;8.748;2023-10-19T09:19:37;18.00;99.90
6627;DHT22;3349;49.830;8.748;2023-10-19T09:22:05;18.10;99.90
6627;DHT22;3349;49.830;8.748;2023-10-19T09:24:42;18.10;99.90
6627;DHT22;3349;49.830;8.748;2023-10-19T09:27:09;18.20;99.90
6627;DHT22;3349;49.830;8.748;2023-10-19T09:29:36;18.20;99.90
6627;DHT22;3349;49.830;8.748;2023-10-19T09:32:03;18.40;99.90
6627;DHT22;3349;49.830;8.748;2023-10-19T09:34:34;18.50;99.90
6627;DHT22;3349;49.830;8.748;2023-10-19T09:37:01;18.70;99.70
6627;DHT22;3349;49.830;8.748;2023-10-19T09:39:28;19.00;97.60
6627;DHT22;3349;49.830;8.748;2023-10-19T09:42:00;19.10;96.40
6627;DHT22;3349;49.830;8.748;2023-10-19T09:44:34;19.30;94.90
6627;DHT22;3349;49.830;8.748;2023-10-19T09:47:10;19.50;91.50
6627;DHT22;3349;49.830;8.748;2023-10-19T09:49:40;19.70;91.10
6627;DHT22;3349;49.830;8.748;2023-10-19T09:52:08;20.00;90.70
6627;DHT22;3349;49.830;8.748;2023-10-19T09:54:42;20.00;86.20
6627;DHT22;3349;49.830;8.748;2023-10-19T09:57:17;20.10;85.30
6627;DHT22;3349;49.830;8.748;2023-10-19T09:59:47;19.90;86.50
6627;DHT22;3349;49.830;8.748;2023-10-19T10:02:16;20.20;82.40
6627;DHT22;3349;49.830;8.748;2023-10-19T10:04:45;20.50;82.10
6627;DHT22;3349;49.830;8.748;2023-10-19T10:07:14;20.90;81.10
6627;DHT22;3349;49.830;8.748;2023-10-19T10:09:42;21.20;76.30
6627;DHT22;3349;49.830;8.748;2023-10-19T10:12:20;21.20;79.60
6627;DHT22;3349;49.830;8.748;2023-10-19T10:14:58;21.10;77.40
6627;DHT22;3349;49.830;8.748;2023-10-19T10:17:26;21.40;76.50
6627;DHT22;3349;49.830;8.748;2023-10-19T10:19:56;21.90;73.40
6627;DHT22;3349;49.830;8.748;2023-10-19T10:22:25;22.50;70.80
6627;DHT22;3349;49.830;8.748;2023-10-19T10:24:55;22.70;66.30
6627;DHT22;3349;49.830;8.748;2023-10-19T10:27:22;22.40;65.00
6627;DHT22;3349;49.830;8.748;2023-10-19T10:29:56;22.60;67.10
6627;DHT22;3349;49.830;8.748;2023-10-19T10:32:43;22.60;64.00
6627;DHT22;3349;49.830;8.748;2023-10-19T10:38:16;22.80;64.00
6627;DHT22;3349;49.830;8.748;2023-10-19T10:40:43;23.10;62.40
6627;DHT22;3349;49.830;8.748;2023-10-19T10:43:10;23.30;59.70
6627;DHT22;3349;49.830;8.748;2023-10-19T10:45:37;23.20;61.20
6627;DHT22;3349;49.830;8.748;2023-10-19T10:48:10;23.40;61.00
6627;DHT22;3349;49.830;8.748;2023-10-19T10:50:38;24.30;57.80
6627;DHT22;3349;49.830;8.748;2023-10-19T10:53:07;24.90;55.30
6627;DHT22;3349;49.830;8.748;2023-10-19T10:55:34;25.20;54.40
6627;DHT22;3349;49.830;8.748;2023-10-19T10:58:00;24.90;54.50
6627;DHT22;3349;49.830;8.748;2023-10-19T11:00:27;24.30;54.40
6627;DHT22;3349;49.830;8.748;2023-10-19T11:03:01;23.80;55.60
6627;DHT22;3349;49.830;8.748;2023-10-19T11:05:30;22.70;59.10
6627;DHT22;3349;49.830;8.748;2023-10-19T11:08:06;22.20;61.70
6627;DHT22;3349;49.830;8.748;2023-10-19T11:10:34;21.70;67.10
6627;DHT22;3349;49.830;8.748;2023-10-19T11:13:02;21.20;69.10
6627;DHT22;3349;49.830;8.748;2023-10-19T11:15:29;20.90;72.10
6627;DHT22;3349;49.830;8.748;2023-10-19T11:17:55;20.50;75.40
6627;DHT22;3349;49.830;8.748;2023-10-19T11:20:23;20.20;79.40
6627;DHT22;3349;49.830;8.748;2023-10-19T11:22:51;20.10;81.60
6627;DHT22;3349;49.830;8.748;2023-10-19T11:25:24;20.00;82.20
6627;DHT22;3349;49.830;8.748;2023-10-19T11:27:53;20.00;83.90
6627;DHT22;3349;49.830;8.748;2023-10-19T11:30:24;19.70;85.00
6627;DHT22;3349;49.830;8.748;2023-10-19T11:32:51;19.50;87.30
6627;DHT22;3349;49.830;8.748;2023-10-19T11:35:23;19.60;87.50
6627;DHT22;3349;49.830;8.748;2023-10-19T11:37:50;19.40;89.40
6627;DHT22;3349;49.830;8.748;2023-10-19T11:40:18;19.30;90.30
6627;DHT22;3349;49.830;8.748;2023-10-19T11:42:47;19.20;90.70
6627;DHT22;3349;49.830;8.748;2023-10-19T11:45:14;19.10;91.30
6627;DHT22;3349;49.830;8.748;2023-10-19T11:47:42;19.10;91.50
6627;DHT22;3349;49.830;8.748;2023-10-19T11:50:09;19.10;92.20
6627;DHT22;3349;49.830;8.748;2023-10-19T11:52:38;19.10;92.30
6627;DHT22;3349;49.830;8.748;2023-10-19T11:55:05;19.20;92.20
6627;DHT22;3349;49.830;8.748;2023-10-19T11:57:34;19.10;91.90
6627;DHT22;3349;49.830;8.748;2023-10-19T12:00:02;19.00;91.20
6627;DHT22;3349;49.830;8.748;2023-10-19T12:02:35;18.90;90.70
6627;DHT22;3349;49.830;8.748;2023-10-19T12:05:03;18.90;92.00
6627;DHT22;3349;49.830;8.748;2023-10-19T12:07:30;18.90;92.80
6627;DHT22;3349;49.830;8.748;2023-10-19T12:09:58;18.90;90.60
6627;DHT22;3349;49.830;8.748;2023-10-19T12:12:24;18.80;90.40
6627;DHT22;3349;49.830;8.748;2023-10-19T12:14:51;18.70;89.80
6627;DHT22;3349;49.830;8.748;2023-10-19T12:17:21;18.60;89.10
6627;DHT22;3349;49.830;8.748;2023-10-19T12:19:51;18.60;89.90
6627;DHT22;3349;49.830;8.748;2023-10-19T12:22:18;18.50;90.90
6627;DHT22;3349;49.830;8.748;2023-10-19T12:24:46;18.50;91.20
6627;DHT22;3349;49.830;8.748;2023-10-19T12:27:13;18.40;91.10
6627;DHT22;3349;49.830;8.748;2023-10-19T12:29:40;18.30;90.50
6627;DHT22;3349;49.830;8.748;2023-10-19T12:32:07;18.20;90.80
6627;DHT22;3349;49.830;8.748;2023-10-19T12:34:36;18.10;91.80
6627;DHT22;3349;49.830;8.748;2023-10-19T12:37:03;18.10;91.60
6627;DHT22;3349;49.830;8.748;2023-10-19T12:39:29;18.10;91.00
6627;DHT22;3349;49.830;8.748;2023-10-19T12:42:08;18.00;91.20
6627;DHT22;3349;49.830;8.748;2023-10-19T12:44:35;18.00;92.20
6627;DHT22;3349;49.830;8.748;2023-10-19T12:47:06;17.90;92.40
6627;DHT22;3349;49.830;8.748;2023-10-19T12:49:36;17.90;92.30
6627;DHT22;3349;49.830;8.748;2023-10-19T12:52:03;17.70;92.80
6627;DHT22;3349;49.830;8.748;2023-10-19T12:54:32;17.60;93.40
6627;DHT22;3349;49.830;8.748;2023-10-19T12:57:00;17.60;93.70
6627;DHT22;3349;49.830;8.748;2023-10-19T12:59:29;17.60;94.10
6627;DHT22;3349;49.830;8.748;2023-10-19T13:01:56;17.60;94.30
6627;DHT22;3349;49.830;8.748;2023-10-19T13:04:24;17.60;94.60
6627;DHT22;3349;49.830;8.748;2023-10-19T13:06:52;17.60;95.40
6627;DHT22;3349;49.830;8.748;2023-10-19T13:09:23;17.60;96.40
6627;DHT22;3349;49.830;8.748;2023-10-19T13:11:56;17.50;98.20
6627;DHT22;3349;49.830;8.748;2023-10-19T13:14:23;17.50;99.40
6627;DHT22;3349;49.830;8.748;2023-10-19T13:16:50;17.40;99.90
6627;DHT22;3349;49.830;8.748;2023-10-19T13:19:17;17.40;99.90
6627;DHT22;3349;49.830;8.748;2023-10-19T13:21:47;17.30;99.90
6627;DHT22;3349;49.830;8.748;2023-10-19T13:24:16;17.30;99.90
6627;DHT22;3349;49.830;8.748;2023-10-19T13:26:44;17.20;99.90
6627;DHT22;3349;49.830;8.748;2023-10-19T13:29:12;17.20;99.90
6627;DHT22;3349;49.830;8.748;2023-10-19T13:31:40;17.20;99.90
6627;DHT22;3349;49.830;8.748;2023-10-19T13:34:09;17.10;99.90
6627;DHT22;3349;49.830;8.748;2023-10-19T13:36:38;17.10;99.90
6627;DHT22;3349;49.830;8.748;2023-10-19T13:39:05;17.10;99.90
6627;DHT22;3349;49.830;8.748;2023-10-19T13:41:39;17.10;99.90
6627;DHT22;3349;49.830;8.748;2023-10-19T13:44:06;17.10;99.90
6627;DHT22;3349;49.830;8.748;2023-10-19T13:46:33;17.10;99.90
6627;DHT22;3349;49.830;8.748;2023-10-19T13:48:59;17.10;99.90
6627;DHT22;3349;49.830;8.748;2023-10-19T13:51:29;17.00;99.90
6627;DHT22;3349;49.830;8.748;2023-10-19T13:53:56;16.90;99.90
6627;DHT22;3349;49.830;8.748;2023-10-19T13:56:23;16.80;99.90
6627;DHT22;3349;49.830;8.748;2023-10-19T13:58:51;16.80;99.90
6627;DHT22;3349;49.830;8.748;2023-10-19T14:01:18;16.80;99.90
6627;DHT22;3349;49.830;8.748;2023-10-19T14:03:51;16.70;99.90
6627;DHT22;3349;49.830;8.748;2023-10-19T14:06:18;16.70;99.90
6627;DHT22;3349;49.830;8.748;2023-10-19T14:08:45;16.80;99.90
6627;DHT22;3349;49.830;8.748;2023-10-19T14:11:13;16.70;99.90
6627;DHT22;3349;49.830;8.748;2023-10-19T14:13:40;16.70;99.90
6627;DHT22;3349;49.830;8.748;2023-10-19T14:16:09;16.70;99.90
6627;DHT22;3349;49.830;8.748;2023-10-19T14:18:36;16.60;99.90
6627;DHT22;3349;49.830;8.748;2023-10-19T14:21:11;16.60;99.90
6627;DHT22;3349;49.830;8.748;2023-10-19T14:23:39;16.60;99.90
6627;DHT22;3349;49.830;8.748;2023-10-19T14:26:06;16.60;99.90
6627;DHT22;3349;49.830;8.748;2023-10-19T14:28:34;16.60;99.90
6627;DHT22;3349;49.830;8.748;2023-10-19T14:31:01;16.50;99.90
6627;DHT22;3349;49.830;8.748;2023-10-19T14:33:30;16.50;99.90
6627;DHT22;3349;49.830;8.748;2023-10-19T14:35:58;16.50;99.90
6627;DHT22;3349;49.830;8.748;2023-10-19T14:38:25;16.50;99.90
6627;DHT22;3349;49.830;8.748;2023-10-19T14:40:53;16.50;99.90
6627;DHT22;3349;49.830;8.748;2023-10-19T14:43:19;16.50;99.90
6627;DHT22;3349;49.830;8.748;2023-10-19T14:45:46;16.50;99.90
6627;DHT22;3349;49.830;8.748;2023-10-19T14:48:13;16.50;99.90
6627;DHT22;3349;49.830;8.748;2023-10-19T14:50:42;16.40;99.90
6627;DHT22;3349;49.830;8.748;2023-10-19T14:53:09;16.40;99.90
6627;DHT22;3349;49.830;8.748;2023-10-19T14:55:36;16.30;99.90
6627;DHT22;3349;49.830;8.748;2023-10-19T14:58:03;16.20;99.90
6627;DHT22;3349;49.830;8.748;2023-10-19T15:00:32;16.20;99.90
6627;DHT22;3349;49.830;8.748;2023-10-19T15:03:00;16.10;99.90
6627;DHT22;3349;49.830;8.748;2023-10-19T15:05:32;16.10;99.90
6627;DHT22;3349;49.830;8.748;2023-10-19T15:08:02;16.10;99.90
6627;DHT22;3349;49.830;8.748;2023-10-19T15:10:30;16.10;99.90
6627;DHT22;3349;49.830;8.748;2023-10-19T15:12:57;16.10;99.90
6627;DHT22;3349;49.830;8.748;2023-10-19T15:15:25;16.10;99.90
6627;DHT22;3349;49.830;8.748;2023-10-19T15:17:52;16.10;99.90
6627;DHT22;3349;49.830;8.748;2023-10-19T15:20:20;16.10;99.90
6627;DHT22;3349;49.830;8.748;2023-10-19T15:22:47;16.10;99.90
6627;DHT22;3349;49.830;8.748;2023-10-19T15:25:16;16.10;99.90
6627;DHT22;3349;49.830;8.748;2023-10-19T15:27:45;16.00;99.90
6627;DHT22;3349;49.830;8.748;2023-10-19T15:30:14;16.00;99.90
6627;DHT22;3349;49.830;8.748;2023-10-19T15:32:41;16.10;99.90
6627;DHT22;3349;49.830;8.748;2023-10-19T15:35:09;16.10;99.90
6627;DHT22;3349;49.830;8.748;2023-10-19T15:37:37;16.20;99.90
6627;DHT22;3349;49.830;8.748;2023-10-19T15:40:05;16.20;99.90
6627;DHT22;3349;49.830;8.748;2023-10-19T15:42:33;16.20;99.90
6627;DHT22;3349;49.830;8.748;2023-10-19T15:45:02;16.30;99.90
6627;DHT22;3349;49.830;8.748;2023-10-19T15:47:28;16.40;99.90
6627;DHT22;3349;49.830;8.748;2023-10-19T15:49:55;16.40;99.90
6627;DHT22;3349;49.830;8.748;2023-10-19T15:52:24;16.50;99.90
6627;DHT22;3349;49.830;8.748;2023-10-19T15:54:51;16.50;99.90
6627;DHT22;3349;49.830;8.748;2023-10-19T15:57:18;16.50;99.90
6627;DHT22;3349;49.830;8.748;2023-10-19T15:59:47;16.50;99.90
6627;DHT22;3349;49.830;8.748;2023-10-19T16:02:14;16.40;99.90
6627;DHT22;3349;49.830;8.748;2023-10-19T16:04:43;16.30;99.90
6627;DHT22;3349;49.830;8.748;2023-10-19T16:07:11;16.20;99.90
6627;DHT22;3349;49.830;8.748;2023-10-19T16:09:38;16.10;99.90
6627;DHT22;3349;49.830;8.748;2023-10-19T16:12:06;16.00;99.90
6627;DHT22;3349;49.830;8.748;2023-10-19T16:14:34;15.90;99.90